createdAt,value
2023-10-10T00:01:45.997Z,2.70
2023-10-10T00:06:50.868Z,2.43
2023-10-10T00:11:54.525Z,2.70
2023-10-10T00:16:56.683Z,3.27
2023-10-10T00:22:00.790Z,2.43
2023-10-10T00:27:16.378Z,3.43
2023-10-10T00:32:18.402Z,3.93
2023-10-10T00:37:35.797Z,3.40
2023-10-10T00:42:38.436Z,2.63
2023-10-10T00:47:46.027Z,2.87
2023-10-10T00:52:54.851Z,2.97
2023-10-10T00:57:59.902Z,2.60
2023-10-10T01:03:08.745Z,3.07
2023-10-10T01:08:11.120Z,2.77
2023-10-10T01:13:14.915Z,3.50
2023-10-10T01:18:16.864Z,3.00
2023-10-10T01:23:27.814Z,3.10
2023-10-10T01:28:35.086Z,2.40
2023-10-10T01:33:37.828Z,3.73
2023-10-10T01:38:42.871Z,3.30
2023-10-10T01:43:47.701Z,3.53
2023-10-10T01:48:49.503Z,2.70
2023-10-10T01:53:56.697Z,3.60
2023-10-10T01:58:58.559Z,2.23
2023-10-10T02:04:03.643Z,3.43
2023-10-10T02:09:28.687Z,2.87
2023-10-10T02:14:31.916Z,3.10
2023-10-10T02:19:40.466Z,3.20
2023-10-10T02:24:42.925Z,3.30
2023-10-10T02:29:49.423Z,3.37
2023-10-10T02:35:14.321Z,3.47
2023-10-10T02:40:16.673Z,4.37
2023-10-10T02:45:28.431Z,4.00
2023-10-10T02:50:42.165Z,3.10
2023-10-10T02:55:51.772Z,2.27
2023-10-10T03:00:58.734Z,3.13
2023-10-10T03:06:07.429Z,3.10
2023-10-10T03:11:36.878Z,3.00
2023-10-10T03:17:01.026Z,2.60
2023-10-10T03:22:29.571Z,2.87
2023-10-10T03:27:50.171Z,2.83
2023-10-10T03:33:09.416Z,3.63
2023-10-10T03:38:31.184Z,3.20
2023-10-10T03:43:51.785Z,4.33
2023-10-10T03:49:12.260Z,2.80
2023-10-10T03:54:32.801Z,3.40
2023-10-10T03:59:53.442Z,2.70
2023-10-10T04:05:26.433Z,3.80
2023-10-10T04:10:47.948Z,3.67
2023-10-10T04:16:11.093Z,3.00
2023-10-10T04:21:31.467Z,2.90
2023-10-10T04:26:53.243Z,3.50
2023-10-10T04:32:13.593Z,3.10
2023-10-10T04:37:34.134Z,3.80
2023-10-10T04:42:54.502Z,4.47
2023-10-10T04:48:34.863Z,3.53
2023-10-10T04:53:55.133Z,3.70
2023-10-10T04:59:15.494Z,3.00
2023-10-10T05:04:36.258Z,4.60
2023-10-10T05:09:56.850Z,3.60
2023-10-10T05:15:17.331Z,4.20
2023-10-10T05:20:37.620Z,3.83
2023-10-10T05:25:39.510Z,3.03
2023-10-10T05:30:43.885Z,4.80
2023-10-10T05:35:48.621Z,3.43
2023-10-10T05:40:52.361Z,4.00
2023-10-10T05:45:55.214Z,3.63
2023-10-10T05:50:58.776Z,4.33
2023-10-10T05:56:13.529Z,3.80
2023-10-10T06:01:16.059Z,3.90
2023-10-10T06:06:19.781Z,3.80
2023-10-10T06:11:21.679Z,4.40
2023-10-10T06:16:25.171Z,3.63
2023-10-10T06:21:27.060Z,4.20
2023-10-10T06:26:28.975Z,4.83
2023-10-10T06:31:36.097Z,5.60
2023-10-10T06:36:39.130Z,3.70
2023-10-10T06:41:42.727Z,3.43
2023-10-10T06:46:48.878Z,3.83
2023-10-10T06:51:51.307Z,5.77
2023-10-10T06:57:02.113Z,3.67
2023-10-10T07:02:22.873Z,3.90
2023-10-10T07:07:27.612Z,3.47
2023-10-10T07:12:30.214Z,3.10
2023-10-10T07:17:32.151Z,2.97
2023-10-10T07:22:35.939Z,4.53
2023-10-10T07:27:40.974Z,3.67
2023-10-10T07:32:44.446Z,6.17
2023-10-10T07:37:47.096Z,6.20
2023-10-10T07:43:04.423Z,6.00
2023-10-10T07:48:06.587Z,5.50
2023-10-10T07:53:13.242Z,5.30
2023-10-10T07:58:15.182Z,6.40
2023-10-10T08:03:22.942Z,5.63
2023-10-10T08:08:27.127Z,5.70
2023-10-10T08:13:30.000Z,4.67
2023-10-10T08:19:01.463Z,4.90
2023-10-10T08:24:04.502Z,5.00
2023-10-10T08:29:10.289Z,5.77
2023-10-10T08:34:12.386Z,5.40
2023-10-10T08:39:17.074Z,5.83
2023-10-10T08:44:19.478Z,4.50
2023-10-10T08:49:21.495Z,5.87
2023-10-10T08:54:24.313Z,4.40
2023-10-10T08:59:26.951Z,6.03
2023-10-10T09:04:31.762Z,4.93
2023-10-10T09:09:41.462Z,4.60
2023-10-10T09:14:50.854Z,5.37
2023-10-10T09:19:52.656Z,5.17
2023-10-10T09:24:57.410Z,4.00
2023-10-10T09:30:01.979Z,4.87
2023-10-10T09:35:08.057Z,4.50
2023-10-10T09:40:16.991Z,5.00
2023-10-10T09:45:39.292Z,4.80
2023-10-10T09:50:52.863Z,5.30
2023-10-10T09:55:55.460Z,5.07
2023-10-10T10:01:14.150Z,4.63
2023-10-10T10:07:07.499Z,4.37
2023-10-10T10:12:20.456Z,4.53
2023-10-10T10:17:47.488Z,5.90
2023-10-10T10:23:00.892Z,4.47
2023-10-10T10:28:11.791Z,4.13
2023-10-10T10:33:13.998Z,4.53
2023-10-10T10:38:18.362Z,4.50
2023-10-10T10:43:23.324Z,4.43
2023-10-10T10:48:31.397Z,4.37
2023-10-10T10:53:39.888Z,4.63
2023-10-10T10:58:57.192Z,4.90
2023-10-10T11:03:59.020Z,5.47
2023-10-10T11:09:24.310Z,4.50
2023-10-10T11:14:30.222Z,5.40
2023-10-10T11:19:32.592Z,3.93
2023-10-10T11:24:35.884Z,4.37
2023-10-10T11:29:51.684Z,3.80
2023-10-10T11:34:57.868Z,4.40
2023-10-10T11:40:20.915Z,4.43
2023-10-10T11:45:28.057Z,4.87
2023-10-10T11:51:02.426Z,4.50
2023-10-10T11:56:08.315Z,3.50
2023-10-10T12:01:19.466Z,3.93
2023-10-10T12:06:28.233Z,3.40
2023-10-10T12:11:34.400Z,4.43
2023-10-10T12:16:36.219Z,4.00
2023-10-10T12:21:38.053Z,3.27
2023-10-10T12:26:43.500Z,3.97
2023-10-10T12:31:45.856Z,3.90
2023-10-10T12:36:48.547Z,3.33
2023-10-10T12:41:50.350Z,4.67
2023-10-10T12:46:55.982Z,4.17
2023-10-10T12:51:58.436Z,3.80
2023-10-10T12:57:04.357Z,3.90
2023-10-10T13:02:09.589Z,3.60
2023-10-10T13:07:11.428Z,3.70
2023-10-10T13:12:19.716Z,3.97
2023-10-10T13:17:24.533Z,3.20
2023-10-10T13:22:30.122Z,4.33
2023-10-10T13:27:31.881Z,4.33
2023-10-10T13:32:33.708Z,3.87
2023-10-10T13:37:36.571Z,3.77
2023-10-10T13:42:41.590Z,5.20
2023-10-10T13:47:49.241Z,3.87
2023-10-10T13:52:51.206Z,4.10
2023-10-10T13:57:54.775Z,4.23
2023-10-10T14:03:01.440Z,3.60
2023-10-10T14:08:04.455Z,4.43
2023-10-10T14:13:21.880Z,5.10
2023-10-10T14:18:24.666Z,4.97
2023-10-10T14:23:26.674Z,4.83
2023-10-10T14:28:29.555Z,5.40
2023-10-10T14:33:31.369Z,6.10
2023-10-10T14:38:33.479Z,5.10
2023-10-10T14:43:35.724Z,3.67
2023-10-10T14:48:38.605Z,5.37
2023-10-10T14:53:41.672Z,5.60
2023-10-10T14:58:43.510Z,4.83
2023-10-10T15:03:49.574Z,4.07
2023-10-10T15:08:51.688Z,4.80
2023-10-10T15:13:55.445Z,5.00
2023-10-10T15:18:57.181Z,4.40
2023-10-10T15:23:59.829Z,4.60
2023-10-10T15:29:01.715Z,4.47
2023-10-10T15:34:04.809Z,4.20
2023-10-10T15:39:10.702Z,4.47
2023-10-10T15:44:14.187Z,4.80
2023-10-10T15:54:21.360Z,4.70
2023-10-10T15:59:25.581Z,5.00
2023-10-10T16:04:29.259Z,4.43
2023-10-10T16:09:31.404Z,4.70
2023-10-10T16:14:38.092Z,4.60
2023-10-10T16:19:43.392Z,3.93
2023-10-10T16:24:45.683Z,5.03
2023-10-10T16:29:47.715Z,4.30
2023-10-10T16:34:49.565Z,5.00
2023-10-10T16:39:51.537Z,4.50
2023-10-10T16:44:54.797Z,4.73
2023-10-10T16:49:56.849Z,4.33
2023-10-10T16:54:58.748Z,4.50
2023-10-10T17:00:00.757Z,4.90
2023-10-10T17:05:05.985Z,5.75
2023-10-10T17:15:47.014Z,4.37
2023-10-10T17:20:57.963Z,4.80
2023-10-10T17:25:59.798Z,4.60
2023-10-10T17:31:01.728Z,4.80
2023-10-10T17:36:04.491Z,5.60
2023-10-10T17:41:06.645Z,5.07
2023-10-10T17:46:34.568Z,5.53
2023-10-10T17:51:37.120Z,5.23
2023-10-10T17:56:38.997Z,6.17
2023-10-10T18:01:42.990Z,7.80
2023-10-10T18:06:45.687Z,6.93
2023-10-10T18:11:49.924Z,6.77
2023-10-10T18:16:51.998Z,8.20
2023-10-10T18:21:54.719Z,6.57
2023-10-10T18:26:57.297Z,7.97
2023-10-10T18:31:59.350Z,6.80
2023-10-10T18:37:02.299Z,7.90
2023-10-10T18:42:05.521Z,7.80
2023-10-10T18:47:10.064Z,6.43
2023-10-10T18:52:13.545Z,6.50
2023-10-10T18:57:15.319Z,5.97
2023-10-10T19:02:17.031Z,6.87
2023-10-10T19:07:18.863Z,5.30
2023-10-10T19:12:22.220Z,4.97
2023-10-10T19:17:23.952Z,4.53
2023-10-10T19:22:25.702Z,5.70
2023-10-10T19:27:27.857Z,4.57
2023-10-10T19:32:30.165Z,4.87
2023-10-10T19:37:34.242Z,4.77
2023-10-10T19:42:36.072Z,5.23
2023-10-10T19:47:41.102Z,5.07
2023-10-10T19:52:44.238Z,5.60
2023-10-10T19:57:49.026Z,5.20
2023-10-10T20:02:52.484Z,4.73
2023-10-10T20:07:55.058Z,4.57
2023-10-10T20:12:58.155Z,4.40
2023-10-10T20:18:00.513Z,4.70
2023-10-10T20:23:03.332Z,5.20
2023-10-10T20:28:05.350Z,5.40
2023-10-10T20:33:12.787Z,5.27
2023-10-10T20:38:20.383Z,5.20
2023-10-10T20:43:22.844Z,5.73
2023-10-10T20:48:24.683Z,4.30
2023-10-10T20:53:29.144Z,4.77
2023-10-10T20:58:33.059Z,4.63
2023-10-10T21:03:34.940Z,4.53
2023-10-10T21:08:37.558Z,4.70
2023-10-10T21:13:39.748Z,4.83
2023-10-10T21:18:42.069Z,4.80
2023-10-10T21:23:44.242Z,4.47
2023-10-10T21:29:48.741Z,5.60
2023-10-10T21:34:51.323Z,4.90
2023-10-10T21:39:53.668Z,4.30
2023-10-10T21:44:55.909Z,5.20
2023-10-10T21:49:58.314Z,4.90
2023-10-10T21:55:00.064Z,4.47
2023-10-10T22:00:01.921Z,4.67
2023-10-10T22:05:03.982Z,5.07
2023-10-10T22:10:08.457Z,4.10
2023-10-10T22:15:12.356Z,4.37
2023-10-10T22:20:16.882Z,3.77
2023-10-10T22:25:23.118Z,4.93
2023-10-10T22:30:25.852Z,4.63
2023-10-10T22:35:29.753Z,4.10
2023-10-10T22:40:34.349Z,4.47
2023-10-10T22:45:38.303Z,4.67
2023-10-10T22:50:41.849Z,3.43
2023-10-10T22:55:43.568Z,4.77
2023-10-10T23:00:48.888Z,4.87
2023-10-10T23:05:52.439Z,4.67
2023-10-10T23:10:54.242Z,3.93
2023-10-10T23:15:55.983Z,4.73
2023-10-10T23:20:57.751Z,4.20
2023-10-10T23:25:59.888Z,4.40
2023-10-10T23:31:02.139Z,4.03
2023-10-10T23:36:07.585Z,4.13
2023-10-10T23:41:22.525Z,4.50
2023-10-10T23:46:24.522Z,3.17
2023-10-10T23:51:27.962Z,4.67
2023-10-10T23:56:35.122Z,4.00
